Sterling, Ohio
Current Conditions -  °F | °C
As of 9:36 AM on Thursday 30 Oct 2014 (Local Time) from KBJJ Reporting Station
Scattered Clouds Scattered Clouds  
Wind Chill: 41°   Ceiling: Unl
Heat Index: 41°   Visibility: 9mi
Dew Point: 38°   Wind: 0mph
Humidity: 89%   Direction: NA
Pressure: 30.14"   Gusts: NA
Location:  40.97°N, 81.85°W
Report Text: KBJJ 301336Z AUTO 00000KT 9SM FEW005 SCT022 05/03 A3014 RMK AO2 T00500033 TSNO
Loading
Personal Weather Stations






























Interactive Weather Map
Tropical Storm Tracking
New forecast layout! Learn more

10-Day Weather Forecast

Advertisements
Track Severe Weather on mobile